Time;durP1;ratioP1;P1;durP2;ratioP2;P2;SDS_P1;SDS_P2;PMS_P1;PMS_P2;Temp;Humidity;BMP_temperature;BMP_pressure;BME280_temperature;BME280_humidity;BME280_pressure;Samples;Min_cycle;Max_cycle;Signal;HPM_P1;HPM_P2
2023/07/19 00:00:38;;;;;;;;;;;22.10;71.70;;;;;;4995410;28;20675;-81
2023/07/19 00:03:04;;;;;;;;;;;22.00;71.70;;;;;;5013898;28;19913;-78
2023/07/19 00:05:29;;;;;;;;;;;22.00;71.90;;;;;;5011332;28;19959;-79
2023/07/19 00:07:55;;;;;;;;;;;22.00;71.80;;;;;;5006488;28;19960;-78
2023/07/19 00:10:21;;;;;;;;;;;22.10;71.50;;;;;;5020113;28;20015;-79
2023/07/19 00:12:46;;;;;;;;;;;22.20;71.00;;;;;;5025960;28;19967;-77
2023/07/19 00:15:12;;;;;;;;;;;22.20;70.90;;;;;;5025452;28;19939;-78
2023/07/19 00:17:37;;;;;;;;;;;22.10;70.80;;;;;;5026070;28;19909;-77
2023/07/19 00:20:04;;;;;;;;;;;22.10;70.90;;;;;;5025396;28;19913;-83
2023/07/19 00:22:30;;;;;;;;;;;22.10;70.70;;;;;;5025215;28;19913;-79
2023/07/19 00:24:56;;;;;;;;;;;22.10;71.00;;;;;;5024366;28;19921;-79
2023/07/19 00:27:22;;;;;;;;;;;22.00;71.40;;;;;;5006709;28;19913;-78
2023/07/19 00:29:48;;;;;;;;;;;22.10;70.90;;;;;;5026009;28;19967;-79
2023/07/19 00:32:13;;;;;;;;;;;21.80;71.00;;;;;;5025094;28;20430;-82
2023/07/19 00:34:39;;;;;;;;;;;21.80;71.40;;;;;;5006178;28;19921;-78
2023/07/19 00:37:04;;;;;;;;;;;21.70;71.80;;;;;;5022592;28;19910;-78
2023/07/19 00:39:30;;;;;;;;;;;21.80;71.50;;;;;;5022664;28;19917;-79
2023/07/19 00:41:56;;;;;;;;;;;21.80;72.00;;;;;;5025525;28;20388;-81
2023/07/19 00:44:21;;;;;;;;;;;21.70;72.70;;;;;;5020580;28;19913;-81
2023/07/19 00:46:47;;;;;;;;;;;21.70;72.60;;;;;;5013248;28;20889;-78
2023/07/19 00:49:13;;;;;;;;;;;21.70;72.40;;;;;;5001127;28;19913;-82
2023/07/19 00:51:38;;;;;;;;;;;21.60;72.40;;;;;;5012833;28;20392;-80
2023/07/19 00:54:05;;;;;;;;;;;21.60;72.50;;;;;;5017157;28;19960;-78
2023/07/19 00:56:32;;;;;;;;;;;21.50;72.10;;;;;;5026023;28;19921;-78
2023/07/19 00:58:58;;;;;;;;;;;21.40;71.50;;;;;;5024993;28;19909;-79
2023/07/19 01:01:24;;;;;;;;;;;21.30;71.60;;;;;;5019481;28;19971;-82
2023/07/19 01:03:49;;;;;;;;;;;21.30;71.90;;;;;;5021429;28;19916;-80
2023/07/19 01:06:17;;;;;;;;;;;21.30;72.30;;;;;;5022461;28;19909;-79
2023/07/19 01:08:42;;;;;;;;;;;21.20;71.40;;;;;;5024591;28;19913;-78
2023/07/19 01:11:08;;;;;;;;;;;21.10;70.70;;;;;;5024434;28;20501;-83
2023/07/19 01:13:34;;;;;;;;;;;21.10;71.40;;;;;;5024363;28;19913;-79
2023/07/19 01:15:59;;;;;;;;;;;21.10;71.40;;;;;;5022023;28;20357;-79
2023/07/19 01:18:25;;;;;;;;;;;21.10;70.90;;;;;;5020673;28;19918;-78
2023/07/19 01:20:51;;;;;;;;;;;21.10;70.70;;;;;;5000980;28;19924;-80
2023/07/19 01:23:16;;;;;;;;;;;21.00;70.80;;;;;;5022373;28;19939;-79
2023/07/19 01:25:42;;;;;;;;;;;21.00;70.60;;;;;;5024033;28;20004;-79
2023/07/19 01:28:08;;;;;;;;;;;21.10;70.70;;;;;;5019423;28;19920;-84
2023/07/19 01:30:34;;;;;;;;;;;21.20;70.50;;;;;;5024492;28;19925;-79
2023/07/19 01:32:59;;;;;;;;;;;21.20;70.20;;;;;;5023984;28;19920;-79
2023/07/19 01:35:25;;;;;;;;;;;21.10;70.10;;;;;;5022671;28;19964;-78
2023/07/19 01:37:50;;;;;;;;;;;21.00;70.40;;;;;;5004677;28;19987;-78
2023/07/19 01:40:16;;;;;;;;;;;20.90;70.30;;;;;;5023945;28;19924;-78
2023/07/19 01:42:41;;;;;;;;;;;20.90;70.40;;;;;;5021458;28;20344;-79
2023/07/19 01:45:07;;;;;;;;;;;21.00;69.80;;;;;;5020396;28;19917;-77
2023/07/19 01:47:33;;;;;;;;;;;21.10;70.00;;;;;;5020856;28;19921;-81
2023/07/19 01:49:59;;;;;;;;;;;21.00;69.80;;;;;;5013860;28;20316;-79
2023/07/19 01:52:25;;;;;;;;;;;21.10;70.00;;;;;;5024451;28;20436;-78
2023/07/19 01:54:50;;;;;;;;;;;21.10;69.80;;;;;;5024293;28;19913;-78
2023/07/19 01:57:16;;;;;;;;;;;21.00;69.80;;;;;;5017086;28;19924;-81
2023/07/19 01:59:42;;;;;;;;;;;20.90;69.80;;;;;;5019225;28;20365;-80
2023/07/19 02:02:07;;;;;;;;;;;20.90;69.90;;;;;;5015712;28;20677;-79
2023/07/19 02:04:33;;;;;;;;;;;20.90;69.60;;;;;;5011727;28;19914;-82
2023/07/19 02:06:59;;;;;;;;;;;21.00;69.70;;;;;;5021230;28;19936;-81
2023/07/19 02:09:24;;;;;;;;;;;21.00;69.60;;;;;;5023286;28;20294;-78
2023/07/19 02:11:50;;;;;;;;;;;20.90;70.00;;;;;;5023988;28;19928;-78
2023/07/19 02:14:15;;;;;;;;;;;21.00;70.20;;;;;;5022260;28;19920;-80
2023/07/19 02:16:41;;;;;;;;;;;21.00;70.20;;;;;;5024410;28;19913;-79
2023/07/19 02:19:07;;;;;;;;;;;20.90;70.50;;;;;;5021204;28;20426;-77
2023/07/19 02:21:33;;;;;;;;;;;20.80;70.90;;;;;;5021125;28;20578;-78
2023/07/19 02:23:58;;;;;;;;;;;20.70;71.50;;;;;;5019758;28;19917;-82
2023/07/19 02:26:24;;;;;;;;;;;20.80;71.40;;;;;;5023332;28;19948;-83
2023/07/19 02:28:50;;;;;;;;;;;20.60;72.10;;;;;;5006739;28;20398;-78
2023/07/19 02:31:15;;;;;;;;;;;20.50;73.00;;;;;;5023966;28;19932;-79
2023/07/19 02:33:41;;;;;;;;;;;20.60;72.80;;;;;;5017724;28;19914;-78
2023/07/19 02:36:07;;;;;;;;;;;20.50;74.10;;;;;;5022873;28;19909;-78
2023/07/19 02:38:33;;;;;;;;;;;20.50;73.40;;;;;;5014075;28;19921;-78
2023/07/19 02:41:02;;;;;;;;;;;20.50;73.10;;;;;;5021853;28;19953;-82
2023/07/19 02:43:28;;;;;;;;;;;20.60;72.80;;;;;;5018221;28;19917;-80
2023/07/19 02:45:54;;;;;;;;;;;20.60;72.80;;;;;;5023096;28;19949;-78
2023/07/19 02:48:20;;;;;;;;;;;20.20;73.80;;;;;;4996983;28;19929;-79
2023/07/19 02:50:46;;;;;;;;;;;20.20;74.30;;;;;;5014170;28;20119;-78
2023/07/19 02:53:11;;;;;;;;;;;20.00;74.90;;;;;;5016118;28;19913;-80
2023/07/19 02:55:37;;;;;;;;;;;20.00;75.10;;;;;;5013209;28;19933;-79
2023/07/19 02:58:03;;;;;;;;;;;20.00;75.20;;;;;;5022404;28;20721;-78
2023/07/19 03:00:31;;;;;;;;;;;20.00;75.10;;;;;;5022986;28;20047;-81
2023/07/19 03:02:57;;;;;;;;;;;19.80;75.70;;;;;;5023270;28;20000;-81
2023/07/19 03:05:23;;;;;;;;;;;19.90;75.90;;;;;;5021622;28;20659;-79
2023/07/19 03:07:49;;;;;;;;;;;20.10;74.80;;;;;;5022727;28;19913;-80
2023/07/19 03:10:15;;;;;;;;;;;20.20;74.10;;;;;;5023506;28;20015;-78
2023/07/19 03:12:41;;;;;;;;;;;20.40;73.50;;;;;;5023077;28;20358;-78
2023/07/19 03:15:06;;;;;;;;;;;20.30;73.70;;;;;;5023342;28;20292;-83
2023/07/19 03:17:32;;;;;;;;;;;20.40;73.60;;;;;;5019495;28;19913;-79
2023/07/19 03:19:58;;;;;;;;;;;20.50;73.30;;;;;;5019686;28;19913;-80
2023/07/19 03:22:23;;;;;;;;;;;20.50;73.30;;;;;;5015710;28;20296;-79
2023/07/19 03:24:49;;;;;;;;;;;20.40;73.10;;;;;;5000829;28;19909;-80
2023/07/19 03:27:14;;;;;;;;;;;20.40;73.90;;;;;;5017249;28;20312;-77
2023/07/19 03:29:40;;;;;;;;;;;20.50;73.20;;;;;;5021251;28;20265;-78
2023/07/19 03:32:06;;;;;;;;;;;20.40;73.80;;;;;;5021758;28;19991;-79
2023/07/19 03:34:32;;;;;;;;;;;20.40;73.50;;;;;;4997445;28;19920;-78
2023/07/19 03:36:58;;;;;;;;;;;20.30;73.00;;;;;;5019423;28;20040;-78
2023/07/19 03:39:23;;;;;;;;;;;20.20;72.40;;;;;;5020621;28;21688;-80
2023/07/19 03:41:49;;;;;;;;;;;20.30;72.60;;;;;;5022093;28;19913;-81
2023/07/19 03:44:14;;;;;;;;;;;20.20;72.50;;;;;;5019795;28;19910;-78
2023/07/19 03:46:40;;;;;;;;;;;20.00;73.40;;;;;;5022920;28;19925;-78
2023/07/19 03:49:06;;;;;;;;;;;19.80;74.30;;;;;;5022186;28;20347;-78
2023/07/19 03:51:31;;;;;;;;;;;19.60;75.20;;;;;;5020681;28;19925;-78
2023/07/19 03:53:57;;;;;;;;;;;19.70;74.60;;;;;;5025708;28;20380;-78
2023/07/19 03:56:22;;;;;;;;;;;19.40;75.70;;;;;;5015638;28;20600;-79
2023/07/19 03:58:49;;;;;;;;;;;19.50;75.70;;;;;;5024973;28;20551;-82
2023/07/19 04:01:15;;;;;;;;;;;19.60;75.60;;;;;;5020806;28;20008;-78
2023/07/19 04:03:41;;;;;;;;;;;19.60;75.30;;;;;;4997673;28;20005;-78
2023/07/19 04:06:06;;;;;;;;;;;19.70;75.40;;;;;;5017645;28;19913;-79
2023/07/19 04:08:33;;;;;;;;;;;19.60;75.90;;;;;;5027351;28;19913;-78
2023/07/19 04:10:58;;;;;;;;;;;19.40;77.00;;;;;;5026116;28;19990;-79
2023/07/19 04:13:26;;;;;;;;;;;19.30;78.00;;;;;;5025980;28;20364;-80
2023/07/19 04:15:52;;;;;;;;;;;19.50;77.60;;;;;;5022453;28;20685;-78
2023/07/19 04:18:17;;;;;;;;;;;19.40;78.00;;;;;;5026906;28;19909;-77
2023/07/19 04:20:43;;;;;;;;;;;19.30;78.90;;;;;;5023626;28;19917;-79
2023/07/19 04:23:09;;;;;;;;;;;19.00;80.30;;;;;;5023931;28;19913;-79
2023/07/19 04:25:34;;;;;;;;;;;19.10;80.30;;;;;;5023271;28;19917;-80
2023/07/19 04:28:00;;;;;;;;;;;19.10;80.10;;;;;;5023510;28;19936;-78
2023/07/19 04:30:25;;;;;;;;;;;19.00;80.80;;;;;;5025921;28;20282;-77
2023/07/19 04:32:54;;;;;;;;;;;19.00;80.70;;;;;;5025055;28;19913;-79
2023/07/19 04:35:23;;;;;;;;;;;19.10;79.80;;;;;;5021901;28;19920;-77
2023/07/19 04:37:49;;;;;;;;;;;19.00;80.10;;;;;;5026569;28;19913;-79
2023/07/19 04:40:16;;;;;;;;;;;18.90;80.00;;;;;;5024241;28;19913;-78
2023/07/19 04:42:41;;;;;;;;;;;18.80;79.60;;;;;;5025472;28;20296;-77
2023/07/19 04:45:07;;;;;;;;;;;19.00;79.60;;;;;;5021625;28;19917;-78
2023/07/19 04:47:33;;;;;;;;;;;18.80;79.60;;;;;;5025820;28;19917;-80
2023/07/19 04:49:59;;;;;;;;;;;18.90;79.60;;;;;;5019575;28;20324;-79
2023/07/19 04:52:27;;;;;;;;;;;19.20;78.90;;;;;;5019700;28;20194;-77
2023/07/19 04:54:52;;;;;;;;;;;19.40;78.00;;;;;;5016540;28;19920;-78
2023/07/19 04:57:18;;;;;;;;;;;19.60;77.10;;;;;;5019109;28;20033;-78
2023/07/19 04:59:43;;;;;;;;;;;19.40;77.50;;;;;;5025413;28;19913;-80
2023/07/19 05:02:09;;;;;;;;;;;19.60;77.00;;;;;;5018723;28;19913;-78
2023/07/19 05:04:34;;;;;;;;;;;20.10;75.40;;;;;;5018662;28;20004;-78
2023/07/19 05:07:00;;;;;;;;;;;20.50;73.70;;;;;;5015671;28;19917;-77
2023/07/19 05:09:26;;;;;;;;;;;20.60;73.50;;;;;;5018987;28;19924;-77
2023/07/19 05:11:51;;;;;;;;;;;20.20;73.50;;;;;;5022364;28;19920;-77
2023/07/19 05:14:17;;;;;;;;;;;19.90;74.40;;;;;;5024384;28;19919;-77
2023/07/19 05:16:43;;;;;;;;;;;20.50;73.90;;;;;;5024465;28;19920;-78
2023/07/19 05:19:08;;;;;;;;;;;20.70;73.10;;;;;;5022298;28;19909;-81
2023/07/19 05:21:34;;;;;;;;;;;20.70;72.20;;;;;;5024925;28;19984;-78
2023/07/19 05:24:00;;;;;;;;;;;20.10;74.10;;;;;;5019667;28;19953;-79
2023/07/19 05:26:25;;;;;;;;;;;20.00;74.40;;;;;;5024404;28;19952;-77
2023/07/19 05:28:51;;;;;;;;;;;19.90;75.10;;;;;;5024148;28;19913;-78
2023/07/19 05:31:16;;;;;;;;;;;19.70;75.10;;;;;;5023208;28;19917;-79
2023/07/19 05:33:42;;;;;;;;;;;19.80;74.30;;;;;;5022532;28;19924;-79
2023/07/19 05:36:07;;;;;;;;;;;19.80;73.90;;;;;;5022776;28;19996;-77
2023/07/19 05:38:33;;;;;;;;;;;19.90;73.90;;;;;;5023934;28;19942;-78
2023/07/19 05:41:02;;;;;;;;;;;20.20;73.70;;;;;;5024523;28;19940;-81
2023/07/19 05:43:28;;;;;;;;;;;20.20;74.20;;;;;;5023950;28;19956;-77
2023/07/19 05:46:01;;;;;;;;;;;20.20;73.00;;;;;;5022699;28;19952;-78
2023/07/19 05:48:26;;;;;;;;;;;20.30;73.20;;;;;;5023741;28;20016;-79
2023/07/19 05:50:52;;;;;;;;;;;20.30;73.80;;;;;;5021253;28;19932;-77
2023/07/19 05:53:17;;;;;;;;;;;20.10;73.80;;;;;;5018245;28;20960;-77
2023/07/19 05:55:43;;;;;;;;;;;20.20;73.60;;;;;;5020235;28;20396;-78
2023/07/19 05:58:08;;;;;;;;;;;20.40;71.90;;;;;;5018784;28;20737;-81
2023/07/19 06:00:34;;;;;;;;;;;20.50;70.70;;;;;;5017403;28;20487;-79
2023/07/19 06:02:59;;;;;;;;;;;20.40;71.80;;;;;;5024121;28;19917;-77
2023/07/19 06:05:25;;;;;;;;;;;20.40;71.90;;;;;;5013542;28;19928;-78
2023/07/19 06:07:51;;;;;;;;;;;20.60;71.30;;;;;;5001373;28;19917;-78
2023/07/19 06:10:18;;;;;;;;;;;20.30;71.80;;;;;;5015154;28;19924;-77
2023/07/19 06:12:44;;;;;;;;;;;20.30;71.50;;;;;;5009351;28;19921;-81
2023/07/19 06:15:10;;;;;;;;;;;20.10;71.00;;;;;;5009278;28;19913;-78
2023/07/19 06:17:36;;;;;;;;;;;19.90;71.50;;;;;;5020798;28;19928;-78
2023/07/19 06:20:03;;;;;;;;;;;20.00;70.80;;;;;;5013920;28;20674;-78
2023/07/19 06:22:29;;;;;;;;;;;19.80;71.10;;;;;;5014182;28;19913;-78
2023/07/19 06:24:55;;;;;;;;;;;19.90;70.80;;;;;;5022428;28;20417;-79
2023/07/19 06:27:21;;;;;;;;;;;20.00;70.30;;;;;;5017247;28;19920;-79
2023/07/19 06:29:46;;;;;;;;;;;20.00;70.00;;;;;;5016430;28;19996;-78
2023/07/19 06:32:12;;;;;;;;;;;20.00;70.20;;;;;;5028560;28;19967;-80
2023/07/19 06:34:37;;;;;;;;;;;20.00;68.50;;;;;;5027584;28;20445;-78
2023/07/19 06:37:03;;;;;;;;;;;20.00;67.20;;;;;;5022586;28;19913;-80
2023/07/19 06:39:30;;;;;;;;;;;20.00;68.60;;;;;;5018755;28;19913;-81
2023/07/19 06:41:55;;;;;;;;;;;20.00;67.10;;;;;;5017834;28;20578;-78
2023/07/19 06:44:21;;;;;;;;;;;20.10;67.30;;;;;;5021576;28;19913;-78
2023/07/19 06:46:46;;;;;;;;;;;20.10;67.50;;;;;;5022511;28;20638;-79
2023/07/19 06:49:12;;;;;;;;;;;20.50;67.50;;;;;;5018632;28;19913;-78
2023/07/19 06:51:38;;;;;;;;;;;20.90;65.80;;;;;;5017587;28;19928;-78
2023/07/19 06:54:03;;;;;;;;;;;21.20;64.30;;;;;;4997379;28;19913;-80
2023/07/19 06:56:29;;;;;;;;;;;21.40;63.80;;;;;;5021464;28;19913;-80
2023/07/19 06:58:54;;;;;;;;;;;21.40;63.80;;;;;;5019966;28;19995;-79
2023/07/19 07:01:20;;;;;;;;;;;21.10;63.90;;;;;;5021611;28;19980;-77
2023/07/19 07:03:45;;;;;;;;;;;21.50;63.90;;;;;;5003348;28;20028;-79
2023/07/19 07:06:11;;;;;;;;;;;21.50;63.70;;;;;;5017429;28;19986;-77
2023/07/19 07:08:36;;;;;;;;;;;21.50;63.70;;;;;;5018236;28;19917;-78
2023/07/19 07:11:04;;;;;;;;;;;22.10;63.20;;;;;;5016803;28;19924;-77
2023/07/19 07:13:30;;;;;;;;;;;22.70;62.20;;;;;;5023550;28;20415;-78
2023/07/19 07:15:55;;;;;;;;;;;23.10;59.90;;;;;;5022421;28;20372;-80
2023/07/19 07:18:21;;;;;;;;;;;23.60;59.90;;;;;;5022290;28;19913;-78
2023/07/19 07:20:47;;;;;;;;;;;24.00;58.70;;;;;;5018739;28;20016;-78
2023/07/19 07:23:12;;;;;;;;;;;23.90;56.90;;;;;;5021191;28;19914;-79
2023/07/19 07:25:38;;;;;;;;;;;23.30;60.20;;;;;;5019929;28;20027;-77
2023/07/19 07:28:04;;;;;;;;;;;23.30;60.10;;;;;;5011292;28;19956;-80
2023/07/19 07:30:30;;;;;;;;;;;23.50;58.90;;;;;;5021562;28;19956;-78
2023/07/19 07:32:55;;;;;;;;;;;24.30;57.20;;;;;;5021383;28;20673;-81
2023/07/19 07:35:21;;;;;;;;;;;24.10;58.70;;;;;;5020151;28;19913;-78
2023/07/19 07:37:47;;;;;;;;;;;24.20;58.70;;;;;;5019224;28;19913;-78
2023/07/19 07:40:12;;;;;;;;;;;24.60;57.70;;;;;;5015725;28;19913;-79
2023/07/19 07:42:38;;;;;;;;;;;25.30;57.00;;;;;;5019134;28;20702;-77
2023/07/19 07:45:05;;;;;;;;;;;25.00;55.80;;;;;;5013572;28;19948;-81
2023/07/19 07:47:31;;;;;;;;;;;25.00;57.60;;;;;;4997811;28;20400;-80
2023/07/19 07:49:56;;;;;;;;;;;25.60;56.30;;;;;;5022141;28;19932;-79
2023/07/19 07:52:22;;;;;;;;;;;26.30;52.00;;;;;;5022962;28;19920;-79
2023/07/19 07:54:48;;;;;;;;;;;27.30;51.50;;;;;;5021415;28;19909;-79
2023/07/19 07:57:16;;;;;;;;;;;29.10;48.80;;;;;;5021632;28;19917;-80
2023/07/19 07:59:42;;;;;;;;;;;30.50;45.50;;;;;;5019481;28;19913;-79
2023/07/19 08:02:07;;;;;;;;;;;30.80;44.50;;;;;;5019782;28;19916;-81
2023/07/19 08:04:33;;;;;;;;;;;33.30;42.10;;;;;;4996424;28;19914;-80
2023/07/19 08:06:58;;;;;;;;;;;33.90;41.60;;;;;;5000046;28;19966;-83
2023/07/19 08:09:24;;;;;;;;;;;34.20;40.10;;;;;;5012482;28;20000;-81
2023/07/19 08:11:49;;;;;;;;;;;34.50;38.00;;;;;;5021322;28;20307;-80
2023/07/19 08:14:15;;;;;;;;;;;34.20;37.60;;;;;;5011117;28;19945;-79
2023/07/19 08:16:40;;;;;;;;;;;34.50;39.30;;;;;;5013723;28;20031;-82
2023/07/19 08:19:06;;;;;;;;;;;35.10;40.20;;;;;;5009763;28;20285;-79
2023/07/19 08:21:31;;;;;;;;;;;35.20;40.40;;;;;;5019954;28;20647;-79
2023/07/19 08:23:57;;;;;;;;;;;35.00;39.40;;;;;;5022017;28;19909;-80
2023/07/19 08:26:23;;;;;;;;;;;35.10;39.90;;;;;;5021630;28;20214;-78
2023/07/19 08:28:48;;;;;;;;;;;35.40;38.20;;;;;;5004042;28;19919;-81
2023/07/19 08:31:15;;;;;;;;;;;32.80;40.30;;;;;;5005898;28;19921;-80
2023/07/19 08:33:41;;;;;;;;;;;34.00;40.40;;;;;;5023974;28;19920;-79
2023/07/19 08:36:07;;;;;;;;;;;35.50;37.50;;;;;;5026368;28;19913;-78
2023/07/19 08:38:33;;;;;;;;;;;35.60;38.00;;;;;;5021679;28;19920;-80
2023/07/19 08:41:00;;;;;;;;;;;35.10;38.30;;;;;;5023427;28;20028;-81
2023/07/19 08:43:27;;;;;;;;;;;35.20;37.10;;;;;;5022228;28;19920;-80
2023/07/19 08:45:53;;;;;;;;;;;35.80;34.20;;;;;;5025606;28;19913;-81
2023/07/19 08:48:18;;;;;;;;;;;35.00;37.20;;;;;;5025289;28;19932;-82
2023/07/19 08:50:45;;;;;;;;;;;35.60;36.90;;;;;;5024060;28;19925;-80
2023/07/19 08:53:10;;;;;;;;;;;35.40;35.60;;;;;;5021778;28;19928;-79
2023/07/19 08:55:36;;;;;;;;;;;35.90;34.30;;;;;;5023191;28;19917;-80
2023/07/19 08:58:02;;;;;;;;;;;37.50;33.70;;;;;;5022155;28;19913;-79
2023/07/19 09:00:30;;;;;;;;;;;35.70;33.50;;;;;;5021961;28;19909;-80
2023/07/19 09:02:55;;;;;;;;;;;34.70;36.60;;;;;;5017753;28;19914;-78
2023/07/19 09:05:21;;;;;;;;;;;34.70;33.90;;;;;;5020901;28;20555;-79
2023/07/19 09:07:48;;;;;;;;;;;35.60;35.30;;;;;;5016435;28;19924;-79
2023/07/19 09:10:13;;;;;;;;;;;36.20;34.10;;;;;;5020736;28;19913;-81
2023/07/19 09:12:40;;;;;;;;;;;34.30;35.70;;;;;;5015344;28;19952;-80
2023/07/19 09:15:06;;;;;;;;;;;34.20;36.30;;;;;;5019322;28;20343;-81
2023/07/19 09:17:39;;;;;;;;;;;33.00;36.90;;;;;;5014120;28;20008;-78
2023/07/19 09:20:06;;;;;;;;;;;32.10;39.40;;;;;;5018345;28;20000;-78
2023/07/19 09:22:33;;;;;;;;;;;31.20;41.60;;;;;;5011814;28;20393;-80
2023/07/19 09:25:01;;;;;;;;;;;30.80;42.60;;;;;;5016436;28;19913;-81
2023/07/19 09:27:27;;;;;;;;;;;29.50;42.20;;;;;;5024978;28;19987;-77
2023/07/19 09:29:53;;;;;;;;;;;29.40;43.70;;;;;;5024772;28;19921;-78
2023/07/19 09:32:19;;;;;;;;;;;30.90;42.60;;;;;;5024815;28;20285;-80
2023/07/19 09:34:45;;;;;;;;;;;34.30;37.80;;;;;;5023418;28;20443;-79
2023/07/19 09:37:11;;;;;;;;;;;35.50;37.40;;;;;;5023599;28;20167;-78
2023/07/19 09:39:36;;;;;;;;;;;38.20;34.70;;;;;;5022600;28;19993;-82
2023/07/19 09:42:03;;;;;;;;;;;38.30;33.60;;;;;;5021856;28;19913;-79
2023/07/19 09:44:29;;;;;;;;;;;36.40;33.30;;;;;;5021246;28;19917;-81
2023/07/19 09:46:56;;;;;;;;;;;37.20;33.90;;;;;;5021643;28;19917;-79
2023/07/19 09:49:22;;;;;;;;;;;36.20;34.10;;;;;;5023783;28;19936;-78
2023/07/19 09:51:48;;;;;;;;;;;36.40;33.40;;;;;;5024186;28;20539;-78
2023/07/19 09:54:14;;;;;;;;;;;38.00;32.00;;;;;;5021476;28;19921;-79
2023/07/19 09:56:40;;;;;;;;;;;38.10;32.10;;;;;;5022119;28;20003;-78
2023/07/19 09:59:12;;;;;;;;;;;37.60;30.30;;;;;;5024617;28;20098;-80
2023/07/19 10:01:38;;;;;;;;;;;38.50;30.60;;;;;;5021687;28;19924;-79
2023/07/19 10:04:21;;;;;;;;;;;38.60;30.30;;;;;;5002910;28;19913;-81
2023/07/19 10:06:47;;;;;;;;;;;38.60;27.90;;;;;;5021363;28;19917;-79
2023/07/19 10:09:35;;;;;;;;;;;38.20;28.90;;;;;;5017513;28;19918;-80
2023/07/19 10:12:01;;;;;;;;;;;38.60;29.00;;;;;;5007870;28;19928;-78
2023/07/19 10:14:28;;;;;;;;;;;39.30;28.50;;;;;;5019158;28;19918;-79
2023/07/19 10:17:00;;;;;;;;;;;37.10;28.70;;;;;;5019009;28;20472;-81
2023/07/19 10:19:26;;;;;;;;;;;38.00;29.10;;;;;;5017843;28;19920;-79
2023/07/19 10:22:04;;;;;;;;;;;39.10;28.60;;;;;;5023554;28;19983;-78
2023/07/19 10:24:33;;;;;;;;;;;39.50;28.80;;;;;;5009772;28;19913;-79
2023/07/19 10:26:59;;;;;;;;;;;38.00;28.70;;;;;;5021659;28;19913;-82
2023/07/19 10:29:25;;;;;;;;;;;38.30;25.80;;;;;;5023312;28;20005;-78
2023/07/19 10:31:50;;;;;;;;;;;38.90;27.00;;;;;;5022631;28;20444;-79
2023/07/19 10:34:16;;;;;;;;;;;38.50;27.00;;;;;;5022787;28;19916;-78
2023/07/19 10:36:46;;;;;;;;;;;38.50;28.80;;;;;;5023696;28;19931;-81
2023/07/19 10:39:12;;;;;;;;;;;37.80;28.70;;;;;;5017136;28;19920;-77
2023/07/19 10:41:37;;;;;;;;;;;36.40;29.80;;;;;;5019685;28;19962;-77
2023/07/19 10:44:03;;;;;;;;;;;35.10;29.40;;;;;;5018019;28;19913;-78
2023/07/19 10:46:29;;;;;;;;;;;35.10;32.30;;;;;;5018339;28;19921;-80
2023/07/19 10:48:54;;;;;;;;;;;33.30;32.60;;;;;;5023204;28;19920;-78
2023/07/19 10:51:20;;;;;;;;;;;32.80;32.40;;;;;;5021251;28;20019;-77
2023/07/19 10:53:46;;;;;;;;;;;32.90;34.20;;;;;;5021506;28;20384;-79
2023/07/19 10:56:15;;;;;;;;;;;32.40;31.60;;;;;;5018709;28;19984;-78
2023/07/19 10:58:40;;;;;;;;;;;30.70;30.00;;;;;;5023585;28;19952;-78
2023/07/19 11:01:06;;;;;;;;;;;30.00;32.40;;;;;;5014474;28;20155;-78
2023/07/19 11:03:32;;;;;;;;;;;30.00;37.20;;;;;;5005076;28;19913;-78
2023/07/19 11:05:58;;;;;;;;;;;29.50;34.20;;;;;;5018332;28;19982;-77
2023/07/19 11:08:25;;;;;;;;;;;29.90;39.90;;;;;;5017446;28;19913;-80
2023/07/19 11:10:51;;;;;;;;;;;30.50;36.80;;;;;;4998854;28;20331;-81
2023/07/19 11:13:18;;;;;;;;;;;30.40;36.00;;;;;;5017063;28;19917;-81
2023/07/19 11:15:48;;;;;;;;;;;29.80;36.20;;;;;;5012055;28;19914;-81
2023/07/19 11:18:22;;;;;;;;;;;29.70;34.10;;;;;;5014271;28;19913;-79
2023/07/19 11:20:48;;;;;;;;;;;29.30;35.20;;;;;;5022447;28;19951;-78
2023/07/19 11:23:14;;;;;;;;;;;29.00;34.50;;;;;;5022377;28;19996;-80
2023/07/19 11:25:39;;;;;;;;;;;28.90;35.00;;;;;;5004148;28;19995;-78
2023/07/19 11:28:05;;;;;;;;;;;28.80;34.20;;;;;;5013326;28;19920;-78
2023/07/19 11:30:40;;;;;;;;;;;28.90;38.50;;;;;;5022050;28;19921;-77
2023/07/19 11:33:07;;;;;;;;;;;28.50;36.50;;;;;;5020740;28;19913;-77
2023/07/19 11:35:33;;;;;;;;;;;28.40;40.20;;;;;;5019637;28;19991;-79
2023/07/19 11:37:59;;;;;;;;;;;27.70;39.30;;;;;;5018314;28;19917;-80
2023/07/19 11:40:24;;;;;;;;;;;28.10;39.80;;;;;;5014179;28;19916;-78
2023/07/19 11:42:54;;;;;;;;;;;27.80;36.50;;;;;;5017918;28;19913;-77
2023/07/19 11:45:20;;;;;;;;;;;28.30;39.50;;;;;;5005361;28;20376;-77
2023/07/19 11:47:49;;;;;;;;;;;28.10;37.70;;;;;;5022163;28;19913;-77
2023/07/19 11:50:15;;;;;;;;;;;27.70;36.20;;;;;;5017053;28;19944;-77
2023/07/19 11:52:46;;;;;;;;;;;28.00;41.70;;;;;;5020816;28;20377;-78
2023/07/19 11:55:15;;;;;;;;;;;27.40;42.80;;;;;;5021036;28;19913;-79
2023/07/19 11:57:42;;;;;;;;;;;27.50;40.80;;;;;;5015238;28;19983;-78
2023/07/19 12:00:08;;;;;;;;;;;27.60;40.50;;;;;;5018575;28;20354;-79
2023/07/19 12:02:34;;;;;;;;;;;27.40;40.50;;;;;;5017636;28;19913;-79
2023/07/19 12:05:00;;;;;;;;;;;27.40;42.80;;;;;;5017655;28;19916;-77
2023/07/19 12:07:25;;;;;;;;;;;27.20;38.20;;;;;;5024248;28;20023;-78
2023/07/19 12:09:51;;;;;;;;;;;27.40;40.60;;;;;;5019577;28;19916;-78
2023/07/19 12:12:17;;;;;;;;;;;26.50;37.00;;;;;;5009052;28;19921;-79
2023/07/19 12:14:42;;;;;;;;;;;27.00;42.40;;;;;;5022006;28;20001;-78
2023/07/19 12:17:08;;;;;;;;;;;27.10;43.10;;;;;;5018960;28;19913;-77
2023/07/19 12:19:33;;;;;;;;;;;27.10;42.50;;;;;;5014965;28;19914;-78
2023/07/19 12:21:59;;;;;;;;;;;27.20;42.00;;;;;;5018359;28;19938;-80
2023/07/19 12:24:25;;;;;;;;;;;27.00;42.10;;;;;;5020336;28;19913;-78
2023/07/19 12:26:50;;;;;;;;;;;27.00;42.70;;;;;;5025805;28;19951;-80
2023/07/19 12:29:16;;;;;;;;;;;26.90;39.40;;;;;;5000095;28;19921;-78
2023/07/19 12:31:41;;;;;;;;;;;26.90;38.70;;;;;;5022591;28;19925;-81
2023/07/19 12:34:07;;;;;;;;;;;26.70;41.00;;;;;;5017730;28;19934;-79
2023/07/19 12:36:32;;;;;;;;;;;26.80;39.90;;;;;;5009522;28;19913;-78
2023/07/19 12:38:58;;;;;;;;;;;27.00;44.40;;;;;;5023982;28;19913;-78
2023/07/19 12:41:24;;;;;;;;;;;26.90;42.30;;;;;;5021179;28;19992;-81
2023/07/19 12:43:50;;;;;;;;;;;26.80;42.60;;;;;;5025092;28;19909;-78
2023/07/19 12:46:15;;;;;;;;;;;26.90;42.90;;;;;;5025454;28;19917;-78
2023/07/19 12:48:41;;;;;;;;;;;26.70;39.90;;;;;;5024916;28;19917;-77
2023/07/19 12:51:07;;;;;;;;;;;26.50;41.60;;;;;;5024303;28;19936;-79
2023/07/19 12:53:34;;;;;;;;;;;26.70;45.00;;;;;;5023929;28;19927;-79
2023/07/19 12:55:59;;;;;;;;;;;26.80;44.30;;;;;;5021472;28;19921;-78
2023/07/19 12:58:25;;;;;;;;;;;26.90;44.20;;;;;;5024801;28;19913;-78
2023/07/19 13:00:50;;;;;;;;;;;26.70;41.50;;;;;;5022410;28;19909;-78
2023/07/19 13:03:16;;;;;;;;;;;26.80;41.60;;;;;;5016783;28;20165;-78
2023/07/19 13:05:41;;;;;;;;;;;26.70;43.20;;;;;;5019607;28;20031;-78
2023/07/19 13:08:07;;;;;;;;;;;26.70;44.70;;;;;;5019106;28;20443;-77
2023/07/19 13:10:33;;;;;;;;;;;26.70;46.70;;;;;;5016434;28;19927;-78
2023/07/19 13:12:58;;;;;;;;;;;26.50;40.70;;;;;;5011836;28;19909;-81
2023/07/19 13:15:24;;;;;;;;;;;26.50;43.90;;;;;;5015257;28;20012;-79
2023/07/19 13:17:50;;;;;;;;;;;26.50;44.40;;;;;;5009076;28;19944;-77
2023/07/19 13:20:15;;;;;;;;;;;26.40;41.20;;;;;;4996827;28;19935;-78
2023/07/19 13:22:41;;;;;;;;;;;26.30;41.10;;;;;;5025298;28;20470;-78
2023/07/19 13:25:07;;;;;;;;;;;26.20;41.00;;;;;;5024453;28;20051;-79
2023/07/19 13:27:32;;;;;;;;;;;26.30;46.60;;;;;;5019950;28;19948;-79
2023/07/19 13:29:58;;;;;;;;;;;26.30;42.90;;;;;;5021677;28;19913;-78
2023/07/19 13:32:24;;;;;;;;;;;26.30;46.60;;;;;;5023669;28;20341;-79
2023/07/19 13:34:49;;;;;;;;;;;26.30;45.90;;;;;;5024103;28;19913;-78
2023/07/19 13:37:15;;;;;;;;;;;26.30;47.20;;;;;;5022143;28;19920;-77
2023/07/19 13:39:41;;;;;;;;;;;26.40;46.20;;;;;;5021837;28;20693;-78
2023/07/19 13:42:06;;;;;;;;;;;26.40;47.10;;;;;;5017656;28;19914;-80
2023/07/19 13:44:32;;;;;;;;;;;26.30;48.20;;;;;;5020594;28;19950;-77
2023/07/19 13:46:58;;;;;;;;;;;26.20;45.80;;;;;;5019521;28;20493;-79
2023/07/19 13:49:24;;;;;;;;;;;26.10;46.20;;;;;;5006289;28;19917;-78
2023/07/19 13:51:49;;;;;;;;;;;25.90;45.20;;;;;;5013023;28;19968;-78
2023/07/19 13:54:15;;;;;;;;;;;25.90;44.60;;;;;;5015796;28;20393;-79
2023/07/19 13:56:40;;;;;;;;;;;26.00;48.80;;;;;;5016897;28;20436;-78
2023/07/19 13:59:06;;;;;;;;;;;26.10;49.20;;;;;;5023653;28;19917;-77
2023/07/19 14:01:31;;;;;;;;;;;26.10;47.70;;;;;;5023382;28;19913;-77
2023/07/19 14:03:57;;;;;;;;;;;26.00;48.90;;;;;;5023163;28;19919;-78
2023/07/19 14:06:22;;;;;;;;;;;26.00;47.90;;;;;;5024704;28;19917;-80
2023/07/19 14:08:48;;;;;;;;;;;26.00;50.20;;;;;;5022703;28;19919;-79